sensor_id;sensor_type;location;lat;lon;timestamp;P1;durP1;ratioP1;P2;durP2;ratioP2
52940;SDS011;62001;53.366;6.636;2023-03-16T00:01:18;7.23;;;3.10;;
52940;SDS011;62001;53.366;6.636;2023-03-16T00:03:44;10.57;;;3.47;;
52940;SDS011;62001;53.366;6.636;2023-03-16T00:06:10;7.30;;;3.10;;
52940;SDS011;62001;53.366;6.636;2023-03-16T00:08:35;8.97;;;3.63;;
52940;SDS011;62001;53.366;6.636;2023-03-16T00:11:03;9.00;;;3.10;;
52940;SDS011;62001;53.366;6.636;2023-03-16T00:13:29;7.20;;;2.80;;
52940;SDS011;62001;53.366;6.636;2023-03-16T00:16:00;5.97;;;2.90;;
52940;SDS011;62001;53.366;6.636;2023-03-16T00:18:28;7.90;;;2.90;;
52940;SDS011;62001;53.366;6.636;2023-03-16T00:20:58;8.70;;;3.03;;
52940;SDS011;62001;53.366;6.636;2023-03-16T00:23:29;6.63;;;3.00;;
52940;SDS011;62001;53.366;6.636;2023-03-16T00:25:59;8.82;;;2.83;;
52940;SDS011;62001;53.366;6.636;2023-03-16T00:28:28;9.53;;;2.97;;
52940;SDS011;62001;53.366;6.636;2023-03-16T00:30:59;11.80;;;2.87;;
52940;SDS011;62001;53.366;6.636;2023-03-16T00:33:29;5.35;;;2.60;;
52940;SDS011;62001;53.366;6.636;2023-03-16T00:35:59;9.60;;;3.03;;
52940;SDS011;62001;53.366;6.636;2023-03-16T00:38:32;9.98;;;3.30;;
52940;SDS011;62001;53.366;6.636;2023-03-16T00:41:00;8.47;;;3.20;;
52940;SDS011;62001;53.366;6.636;2023-03-16T00:43:30;12.52;;;3.00;;
52940;SDS011;62001;53.366;6.636;2023-03-16T00:46:04;8.13;;;3.07;;
52940;SDS011;62001;53.366;6.636;2023-03-16T00:48:35;8.13;;;3.07;;
52940;SDS011;62001;53.366;6.636;2023-03-16T00:53:35;10.80;;;3.23;;
52940;SDS011;62001;53.366;6.636;2023-03-16T00:56:05;13.90;;;3.37;;
52940;SDS011;62001;53.366;6.636;2023-03-16T00:58:31;8.70;;;3.00;;
52940;SDS011;62001;53.366;6.636;2023-03-16T01:01:07;6.50;;;2.42;;
52940;SDS011;62001;53.366;6.636;2023-03-16T01:03:38;9.27;;;3.57;;
52940;SDS011;62001;53.366;6.636;2023-03-16T01:06:08;11.17;;;3.30;;
52940;SDS011;62001;53.366;6.636;2023-03-16T01:08:36;7.60;;;2.73;;
52940;SDS011;62001;53.366;6.636;2023-03-16T01:11:08;8.20;;;2.80;;
52940;SDS011;62001;53.366;6.636;2023-03-16T01:13:36;7.40;;;2.90;;
52940;SDS011;62001;53.366;6.636;2023-03-16T01:16:03;7.40;;;3.13;;
52940;SDS011;62001;53.366;6.636;2023-03-16T01:18:29;5.93;;;3.03;;
52940;SDS011;62001;53.366;6.636;2023-03-16T01:20:59;7.37;;;2.87;;
52940;SDS011;62001;53.366;6.636;2023-03-16T01:23:26;4.67;;;2.63;;
52940;SDS011;62001;53.366;6.636;2023-03-16T01:25:54;8.57;;;2.93;;
52940;SDS011;62001;53.366;6.636;2023-03-16T01:28:25;10.13;;;3.10;;
52940;SDS011;62001;53.366;6.636;2023-03-16T01:30:53;9.57;;;2.80;;
52940;SDS011;62001;53.366;6.636;2023-03-16T01:33:22;9.17;;;3.00;;
52940;SDS011;62001;53.366;6.636;2023-03-16T01:35:53;7.80;;;3.30;;
52940;SDS011;62001;53.366;6.636;2023-03-16T01:38:29;8.40;;;2.93;;
52940;SDS011;62001;53.366;6.636;2023-03-16T01:40:55;11.57;;;3.00;;
52940;SDS011;62001;53.366;6.636;2023-03-16T01:43:23;6.87;;;3.30;;
52940;SDS011;62001;53.366;6.636;2023-03-16T01:51:23;4.93;;;3.17;;
52940;SDS011;62001;53.366;6.636;2023-03-16T01:54:01;8.23;;;3.53;;
52940;SDS011;62001;53.366;6.636;2023-03-16T01:56:38;9.33;;;3.23;;
52940;SDS011;62001;53.366;6.636;2023-03-16T01:59:13;8.43;;;3.57;;
52940;SDS011;62001;53.366;6.636;2023-03-16T02:01:42;7.30;;;3.45;;
52940;SDS011;62001;53.366;6.636;2023-03-16T02:04:12;7.30;;;3.43;;
52940;SDS011;62001;53.366;6.636;2023-03-16T02:06:42;8.10;;;3.17;;
52940;SDS011;62001;53.366;6.636;2023-03-16T02:09:08;7.33;;;3.23;;
52940;SDS011;62001;53.366;6.636;2023-03-16T02:11:35;7.73;;;4.10;;
52940;SDS011;62001;53.366;6.636;2023-03-16T02:14:03;13.30;;;4.13;;
52940;SDS011;62001;53.366;6.636;2023-03-16T02:16:33;12.03;;;4.33;;
52940;SDS011;62001;53.366;6.636;2023-03-16T02:18:59;8.40;;;4.10;;
52940;SDS011;62001;53.366;6.636;2023-03-16T02:21:32;12.63;;;3.87;;
52940;SDS011;62001;53.366;6.636;2023-03-16T02:24:06;12.87;;;4.17;;
52940;SDS011;62001;53.366;6.636;2023-03-16T02:26:42;13.63;;;4.57;;
52940;SDS011;62001;53.366;6.636;2023-03-16T02:29:16;8.93;;;4.23;;
52940;SDS011;62001;53.366;6.636;2023-03-16T02:31:54;9.85;;;4.22;;
52940;SDS011;62001;53.366;6.636;2023-03-16T02:34:22;10.47;;;3.93;;
52940;SDS011;62001;53.366;6.636;2023-03-16T02:36:49;9.83;;;3.77;;
52940;SDS011;62001;53.366;6.636;2023-03-16T02:39:17;12.27;;;3.80;;
52940;SDS011;62001;53.366;6.636;2023-03-16T02:41:43;8.27;;;4.40;;
52940;SDS011;62001;53.366;6.636;2023-03-16T02:44:17;10.40;;;3.40;;
52940;SDS011;62001;53.366;6.636;2023-03-16T02:46:49;8.53;;;4.50;;
52940;SDS011;62001;53.366;6.636;2023-03-16T02:49:20;9.73;;;4.40;;
52940;SDS011;62001;53.366;6.636;2023-03-16T02:51:52;8.17;;;4.33;;
52940;SDS011;62001;53.366;6.636;2023-03-16T02:54:18;7.93;;;4.37;;
52940;SDS011;62001;53.366;6.636;2023-03-16T02:56:44;8.67;;;4.37;;
52940;SDS011;62001;53.366;6.636;2023-03-16T02:59:10;9.07;;;4.30;;
52940;SDS011;62001;53.366;6.636;2023-03-16T03:01:36;8.37;;;4.23;;
52940;SDS011;62001;53.366;6.636;2023-03-16T03:04:03;8.90;;;4.70;;
52940;SDS011;62001;53.366;6.636;2023-03-16T03:06:29;7.80;;;4.00;;
52940;SDS011;62001;53.366;6.636;2023-03-16T03:08:56;8.47;;;4.23;;
52940;SDS011;62001;53.366;6.636;2023-03-16T03:11:23;12.00;;;4.90;;
52940;SDS011;62001;53.366;6.636;2023-03-16T03:13:48;14.23;;;4.90;;
52940;SDS011;62001;53.366;6.636;2023-03-16T03:16:14;11.93;;;4.90;;
52940;SDS011;62001;53.366;6.636;2023-03-16T03:18:40;10.77;;;4.67;;
52940;SDS011;62001;53.366;6.636;2023-03-16T03:21:06;9.70;;;4.87;;
52940;SDS011;62001;53.366;6.636;2023-03-16T03:23:32;10.97;;;5.30;;
52940;SDS011;62001;53.366;6.636;2023-03-16T03:25:59;11.60;;;5.20;;
52940;SDS011;62001;53.366;6.636;2023-03-16T03:28:27;11.73;;;5.47;;
52940;SDS011;62001;53.366;6.636;2023-03-16T03:30:53;10.53;;;5.17;;
52940;SDS011;62001;53.366;6.636;2023-03-16T03:33:19;12.53;;;4.73;;
52940;SDS011;62001;53.366;6.636;2023-03-16T03:35:46;12.30;;;4.90;;
52940;SDS011;62001;53.366;6.636;2023-03-16T03:38:17;7.80;;;4.87;;
52940;SDS011;62001;53.366;6.636;2023-03-16T03:40:43;11.53;;;5.20;;
52940;SDS011;62001;53.366;6.636;2023-03-16T03:43:09;13.93;;;4.83;;
52940;SDS011;62001;53.366;6.636;2023-03-16T03:45:34;10.70;;;5.10;;
52940;SDS011;62001;53.366;6.636;2023-03-16T03:48:00;14.63;;;4.67;;
52940;SDS011;62001;53.366;6.636;2023-03-16T03:50:26;10.10;;;4.57;;
52940;SDS011;62001;53.366;6.636;2023-03-16T03:52:52;13.40;;;5.13;;
52940;SDS011;62001;53.366;6.636;2023-03-16T03:55:17;11.30;;;4.67;;
52940;SDS011;62001;53.366;6.636;2023-03-16T03:57:43;10.37;;;5.23;;
52940;SDS011;62001;53.366;6.636;2023-03-16T04:00:09;10.23;;;4.87;;
52940;SDS011;62001;53.366;6.636;2023-03-16T04:02:37;9.00;;;5.00;;
52940;SDS011;62001;53.366;6.636;2023-03-16T04:05:04;9.60;;;4.70;;
52940;SDS011;62001;53.366;6.636;2023-03-16T04:07:30;10.83;;;5.00;;
52940;SDS011;62001;53.366;6.636;2023-03-16T04:09:56;11.30;;;5.10;;
52940;SDS011;62001;53.366;6.636;2023-03-16T04:12:25;9.20;;;4.53;;
52940;SDS011;62001;53.366;6.636;2023-03-16T04:14:51;9.80;;;4.83;;
52940;SDS011;62001;53.366;6.636;2023-03-16T04:17:17;8.27;;;4.70;;
52940;SDS011;62001;53.366;6.636;2023-03-16T04:19:43;9.23;;;4.60;;
52940;SDS011;62001;53.366;6.636;2023-03-16T04:22:09;10.27;;;4.63;;
52940;SDS011;62001;53.366;6.636;2023-03-16T04:24:35;8.23;;;4.93;;
52940;SDS011;62001;53.366;6.636;2023-03-16T04:27:00;11.17;;;4.83;;
52940;SDS011;62001;53.366;6.636;2023-03-16T04:29:27;10.10;;;4.90;;
52940;SDS011;62001;53.366;6.636;2023-03-16T04:31:53;9.23;;;5.10;;
52940;SDS011;62001;53.366;6.636;2023-03-16T04:34:19;9.77;;;5.00;;
52940;SDS011;62001;53.366;6.636;2023-03-16T04:36:50;10.10;;;4.63;;
52940;SDS011;62001;53.366;6.636;2023-03-16T04:39:16;8.80;;;4.33;;
52940;SDS011;62001;53.366;6.636;2023-03-16T04:41:43;10.00;;;4.87;;
52940;SDS011;62001;53.366;6.636;2023-03-16T04:44:09;9.97;;;5.00;;
52940;SDS011;62001;53.366;6.636;2023-03-16T04:46:35;11.70;;;5.57;;
52940;SDS011;62001;53.366;6.636;2023-03-16T04:49:01;9.83;;;4.90;;
52940;SDS011;62001;53.366;6.636;2023-03-16T04:51:28;11.77;;;4.83;;
52940;SDS011;62001;53.366;6.636;2023-03-16T04:53:54;10.70;;;5.40;;
52940;SDS011;62001;53.366;6.636;2023-03-16T04:56:20;14.00;;;5.33;;
52940;SDS011;62001;53.366;6.636;2023-03-16T04:58:48;12.33;;;4.87;;
52940;SDS011;62001;53.366;6.636;2023-03-16T05:01:15;10.00;;;5.87;;
52940;SDS011;62001;53.366;6.636;2023-03-16T05:03:42;7.83;;;5.67;;
52940;SDS011;62001;53.366;6.636;2023-03-16T05:06:09;8.20;;;5.33;;
52940;SDS011;62001;53.366;6.636;2023-03-16T05:08:36;9.27;;;4.90;;
52940;SDS011;62001;53.366;6.636;2023-03-16T05:11:02;11.10;;;5.53;;
52940;SDS011;62001;53.366;6.636;2023-03-16T05:13:28;9.87;;;5.13;;
52940;SDS011;62001;53.366;6.636;2023-03-16T05:15:54;11.10;;;5.17;;
52940;SDS011;62001;53.366;6.636;2023-03-16T05:18:20;13.57;;;5.20;;
52940;SDS011;62001;53.366;6.636;2023-03-16T05:20:50;12.23;;;5.00;;
52940;SDS011;62001;53.366;6.636;2023-03-16T05:23:17;11.30;;;5.57;;
52940;SDS011;62001;53.366;6.636;2023-03-16T05:25:45;9.90;;;5.23;;
52940;SDS011;62001;53.366;6.636;2023-03-16T05:28:11;9.50;;;5.47;;
52940;SDS011;62001;53.366;6.636;2023-03-16T05:30:37;10.23;;;5.40;;
52940;SDS011;62001;53.366;6.636;2023-03-16T05:33:03;9.27;;;5.70;;
52940;SDS011;62001;53.366;6.636;2023-03-16T05:35:29;11.37;;;5.47;;
52940;SDS011;62001;53.366;6.636;2023-03-16T05:37:55;10.30;;;5.73;;
52940;SDS011;62001;53.366;6.636;2023-03-16T05:40:21;12.33;;;5.33;;
52940;SDS011;62001;53.366;6.636;2023-03-16T05:42:48;8.00;;;5.33;;
52940;SDS011;62001;53.366;6.636;2023-03-16T05:45:18;9.20;;;5.77;;
52940;SDS011;62001;53.366;6.636;2023-03-16T05:47:44;10.80;;;5.87;;
52940;SDS011;62001;53.366;6.636;2023-03-16T05:50:11;12.10;;;5.37;;
52940;SDS011;62001;53.366;6.636;2023-03-16T05:52:38;11.70;;;6.23;;
52940;SDS011;62001;53.366;6.636;2023-03-16T05:55:05;9.77;;;5.37;;
52940;SDS011;62001;53.366;6.636;2023-03-16T05:57:32;12.33;;;6.03;;
52940;SDS011;62001;53.366;6.636;2023-03-16T05:59:59;11.23;;;5.40;;
52940;SDS011;62001;53.366;6.636;2023-03-16T06:02:37;12.97;;;5.60;;
52940;SDS011;62001;53.366;6.636;2023-03-16T06:05:03;11.73;;;5.30;;
52940;SDS011;62001;53.366;6.636;2023-03-16T06:07:29;9.93;;;5.73;;
52940;SDS011;62001;53.366;6.636;2023-03-16T06:09:54;9.73;;;6.10;;
52940;SDS011;62001;53.366;6.636;2023-03-16T06:12:20;11.80;;;6.17;;
52940;SDS011;62001;53.366;6.636;2023-03-16T06:14:46;12.57;;;6.17;;
52940;SDS011;62001;53.366;6.636;2023-03-16T06:17:12;10.40;;;5.63;;
52940;SDS011;62001;53.366;6.636;2023-03-16T06:19:38;8.00;;;5.67;;
52940;SDS011;62001;53.366;6.636;2023-03-16T06:22:04;10.27;;;6.20;;
52940;SDS011;62001;53.366;6.636;2023-03-16T06:24:30;11.70;;;6.30;;
52940;SDS011;62001;53.366;6.636;2023-03-16T06:26:56;10.73;;;6.07;;
52940;SDS011;62001;53.366;6.636;2023-03-16T06:29:22;11.47;;;6.07;;
52940;SDS011;62001;53.366;6.636;2023-03-16T06:31:48;9.17;;;5.57;;
52940;SDS011;62001;53.366;6.636;2023-03-16T06:34:15;9.23;;;6.43;;
52940;SDS011;62001;53.366;6.636;2023-03-16T06:36:41;10.47;;;5.70;;
52940;SDS011;62001;53.366;6.636;2023-03-16T06:39:07;9.77;;;5.63;;
52940;SDS011;62001;53.366;6.636;2023-03-16T06:41:33;10.23;;;5.87;;
52940;SDS011;62001;53.366;6.636;2023-03-16T06:44:00;10.90;;;5.83;;
52940;SDS011;62001;53.366;6.636;2023-03-16T06:46:26;9.33;;;5.70;;
52940;SDS011;62001;53.366;6.636;2023-03-16T06:48:52;8.53;;;5.67;;
52940;SDS011;62001;53.366;6.636;2023-03-16T06:51:18;8.80;;;6.13;;
52940;SDS011;62001;53.366;6.636;2023-03-16T06:53:44;12.50;;;6.43;;
52940;SDS011;62001;53.366;6.636;2023-03-16T06:56:10;9.50;;;6.17;;
52940;SDS011;62001;53.366;6.636;2023-03-16T06:58:36;10.90;;;5.90;;
52940;SDS011;62001;53.366;6.636;2023-03-16T07:01:02;12.43;;;6.13;;
52940;SDS011;62001;53.366;6.636;2023-03-16T07:03:28;10.33;;;5.90;;
52940;SDS011;62001;53.366;6.636;2023-03-16T07:05:55;10.57;;;5.97;;
52940;SDS011;62001;53.366;6.636;2023-03-16T07:08:21;10.17;;;6.27;;
52940;SDS011;62001;53.366;6.636;2023-03-16T07:10:48;10.63;;;5.90;;
52940;SDS011;62001;53.366;6.636;2023-03-16T07:13:15;9.53;;;5.93;;
52940;SDS011;62001;53.366;6.636;2023-03-16T07:15:42;12.40;;;6.20;;
52940;SDS011;62001;53.366;6.636;2023-03-16T07:18:08;11.83;;;5.97;;
52940;SDS011;62001;53.366;6.636;2023-03-16T07:20:36;9.97;;;5.77;;
52940;SDS011;62001;53.366;6.636;2023-03-16T07:23:02;9.40;;;5.90;;
52940;SDS011;62001;53.366;6.636;2023-03-16T07:25:28;11.97;;;6.17;;
52940;SDS011;62001;53.366;6.636;2023-03-16T07:27:55;9.77;;;5.50;;
52940;SDS011;62001;53.366;6.636;2023-03-16T07:30:22;8.63;;;5.63;;
52940;SDS011;62001;53.366;6.636;2023-03-16T07:32:49;9.50;;;5.57;;
52940;SDS011;62001;53.366;6.636;2023-03-16T07:35:15;8.67;;;5.60;;
52940;SDS011;62001;53.366;6.636;2023-03-16T07:37:41;9.47;;;5.73;;
52940;SDS011;62001;53.366;6.636;2023-03-16T07:40:08;9.03;;;5.93;;
52940;SDS011;62001;53.366;6.636;2023-03-16T07:42:35;9.13;;;6.07;;
52940;SDS011;62001;53.366;6.636;2023-03-16T07:45:02;8.10;;;5.10;;
52940;SDS011;62001;53.366;6.636;2023-03-16T07:47:29;12.10;;;5.93;;
52940;SDS011;62001;53.366;6.636;2023-03-16T07:49:55;10.33;;;5.77;;
52940;SDS011;62001;53.366;6.636;2023-03-16T07:52:21;9.70;;;5.40;;
52940;SDS011;62001;53.366;6.636;2023-03-16T07:54:48;10.87;;;6.30;;
52940;SDS011;62001;53.366;6.636;2023-03-16T07:57:14;11.70;;;6.43;;
52940;SDS011;62001;53.366;6.636;2023-03-16T07:59:40;10.73;;;5.50;;
52940;SDS011;62001;53.366;6.636;2023-03-16T08:02:08;10.10;;;5.73;;
52940;SDS011;62001;53.366;6.636;2023-03-16T08:04:38;10.33;;;5.70;;
52940;SDS011;62001;53.366;6.636;2023-03-16T08:07:07;15.70;;;6.30;;
52940;SDS011;62001;53.366;6.636;2023-03-16T08:09:34;9.07;;;5.70;;
52940;SDS011;62001;53.366;6.636;2023-03-16T08:12:00;9.73;;;6.07;;
52940;SDS011;62001;53.366;6.636;2023-03-16T08:14:30;9.80;;;5.55;;
52940;SDS011;62001;53.366;6.636;2023-03-16T08:16:59;6.93;;;5.43;;
52940;SDS011;62001;53.366;6.636;2023-03-16T08:19:26;8.67;;;5.83;;
52940;SDS011;62001;53.366;6.636;2023-03-16T08:21:52;9.30;;;5.83;;
52940;SDS011;62001;53.366;6.636;2023-03-16T08:24:18;11.63;;;5.73;;
52940;SDS011;62001;53.366;6.636;2023-03-16T08:26:43;9.27;;;6.23;;
52940;SDS011;62001;53.366;6.636;2023-03-16T08:29:09;10.70;;;5.73;;
52940;SDS011;62001;53.366;6.636;2023-03-16T08:31:35;10.43;;;6.10;;
52940;SDS011;62001;53.366;6.636;2023-03-16T08:34:01;9.27;;;6.03;;
52940;SDS011;62001;53.366;6.636;2023-03-16T08:36:28;11.00;;;6.07;;
52940;SDS011;62001;53.366;6.636;2023-03-16T08:38:54;13.03;;;5.90;;
52940;SDS011;62001;53.366;6.636;2023-03-16T08:41:20;12.20;;;6.50;;
52940;SDS011;62001;53.366;6.636;2023-03-16T08:43:47;9.47;;;6.23;;
52940;SDS011;62001;53.366;6.636;2023-03-16T08:46:13;9.77;;;6.23;;
52940;SDS011;62001;53.366;6.636;2023-03-16T08:48:40;12.03;;;6.20;;
52940;SDS011;62001;53.366;6.636;2023-03-16T08:51:07;7.90;;;5.53;;
52940;SDS011;62001;53.366;6.636;2023-03-16T08:53:34;10.00;;;6.63;;
52940;SDS011;62001;53.366;6.636;2023-03-16T08:56:04;12.67;;;6.60;;
52940;SDS011;62001;53.366;6.636;2023-03-16T08:58:34;9.47;;;6.33;;
52940;SDS011;62001;53.366;6.636;2023-03-16T09:01:00;7.80;;;6.20;;
52940;SDS011;62001;53.366;6.636;2023-03-16T09:03:28;9.00;;;6.20;;
52940;SDS011;62001;53.366;6.636;2023-03-16T09:05:59;12.23;;;6.33;;
52940;SDS011;62001;53.366;6.636;2023-03-16T09:08:27;11.17;;;6.77;;
52940;SDS011;62001;53.366;6.636;2023-03-16T09:11:04;10.27;;;6.17;;
52940;SDS011;62001;53.366;6.636;2023-03-16T09:13:31;11.60;;;6.93;;
52940;SDS011;62001;53.366;6.636;2023-03-16T09:15:58;14.53;;;7.63;;
52940;SDS011;62001;53.366;6.636;2023-03-16T09:18:24;10.30;;;6.87;;
52940;SDS011;62001;53.366;6.636;2023-03-16T09:20:52;11.80;;;6.93;;
52940;SDS011;62001;53.366;6.636;2023-03-16T09:23:22;10.80;;;6.77;;
52940;SDS011;62001;53.366;6.636;2023-03-16T09:25:50;10.03;;;6.60;;
52940;SDS011;62001;53.366;6.636;2023-03-16T09:28:17;11.00;;;6.70;;
52940;SDS011;62001;53.366;6.636;2023-03-16T09:30:43;12.17;;;7.27;;
52940;SDS011;62001;53.366;6.636;2023-03-16T09:33:09;10.53;;;6.47;;
52940;SDS011;62001;53.366;6.636;2023-03-16T09:35:36;11.47;;;6.90;;
52940;SDS011;62001;53.366;6.636;2023-03-16T09:38:02;11.83;;;6.87;;
52940;SDS011;62001;53.366;6.636;2023-03-16T09:40:29;13.03;;;7.27;;
52940;SDS011;62001;53.366;6.636;2023-03-16T09:48:32;11.77;;;6.83;;
52940;SDS011;62001;53.366;6.636;2023-03-16T09:51:00;12.37;;;7.90;;
52940;SDS011;62001;53.366;6.636;2023-03-16T09:53:33;13.55;;;8.15;;
52940;SDS011;62001;53.366;6.636;2023-03-16T09:56:04;10.10;;;7.30;;
52940;SDS011;62001;53.366;6.636;2023-03-16T09:58:39;10.67;;;7.80;;
52940;SDS011;62001;53.366;6.636;2023-03-16T10:01:48;10.63;;;7.10;;
52940;SDS011;62001;53.366;6.636;2023-03-16T10:07:20;11.67;;;7.80;;
52940;SDS011;62001;53.366;6.636;2023-03-16T10:12:25;11.23;;;7.17;;
52940;SDS011;62001;53.366;6.636;2023-03-16T10:18:04;11.33;;;7.53;;
52940;SDS011;62001;53.366;6.636;2023-03-16T10:20:37;10.63;;;7.10;;
52940;SDS011;62001;53.366;6.636;2023-03-16T10:23:22;12.80;;;7.63;;
52940;SDS011;62001;53.366;6.636;2023-03-16T10:25:52;14.27;;;7.63;;
52940;SDS011;62001;53.366;6.636;2023-03-16T10:28:23;12.43;;;7.35;;
52940;SDS011;62001;53.366;6.636;2023-03-16T10:30:51;10.13;;;7.03;;
52940;SDS011;62001;53.366;6.636;2023-03-16T10:41:37;12.70;;;7.00;;
52940;SDS011;62001;53.366;6.636;2023-03-16T10:44:21;10.30;;;7.20;;
52940;SDS011;62001;53.366;6.636;2023-03-16T10:46:58;10.17;;;7.50;;
52940;SDS011;62001;53.366;6.636;2023-03-16T10:49:34;11.67;;;8.13;;
52940;SDS011;62001;53.366;6.636;2023-03-16T10:52:15;11.97;;;7.80;;
52940;SDS011;62001;53.366;6.636;2023-03-16T10:58:07;11.03;;;8.23;;
52940;SDS011;62001;53.366;6.636;2023-03-16T11:00:34;14.23;;;7.67;;
52940;SDS011;62001;53.366;6.636;2023-03-16T11:03:11;12.03;;;7.03;;
52940;SDS011;62001;53.366;6.636;2023-03-16T11:05:59;9.80;;;7.33;;
52940;SDS011;62001;53.366;6.636;2023-03-16T11:08:30;13.23;;;8.03;;
52940;SDS011;62001;53.366;6.636;2023-03-16T11:10:59;11.83;;;7.60;;
52940;SDS011;62001;53.366;6.636;2023-03-16T11:13:33;14.37;;;7.47;;
52940;SDS011;62001;53.366;6.636;2023-03-16T11:16:08;11.20;;;7.30;;
52940;SDS011;62001;53.366;6.636;2023-03-16T11:18:45;13.98;;;7.90;;
52940;SDS011;62001;53.366;6.636;2023-03-16T11:21:15;15.43;;;8.37;;
52940;SDS011;62001;53.366;6.636;2023-03-16T11:23:51;12.63;;;7.93;;
52940;SDS011;62001;53.366;6.636;2023-03-16T11:26:22;12.68;;;7.75;;
52940;SDS011;62001;53.366;6.636;2023-03-16T11:29:01;13.20;;;7.70;;
52940;SDS011;62001;53.366;6.636;2023-03-16T11:31:41;10.60;;;7.43;;
52940;SDS011;62001;53.366;6.636;2023-03-16T11:34:15;13.27;;;7.63;;
52940;SDS011;62001;53.366;6.636;2023-03-16T11:36:54;12.43;;;7.67;;
52940;SDS011;62001;53.366;6.636;2023-03-16T11:39:30;11.43;;;7.57;;
52940;SDS011;62001;53.366;6.636;2023-03-16T11:42:22;11.60;;;7.43;;
52940;SDS011;62001;53.366;6.636;2023-03-16T11:50:34;10.03;;;7.90;;
52940;SDS011;62001;53.366;6.636;2023-03-16T11:53:12;9.55;;;6.70;;
52940;SDS011;62001;53.366;6.636;2023-03-16T11:56:01;14.67;;;7.27;;
52940;SDS011;62001;53.366;6.636;2023-03-16T12:07:28;8.60;;;6.27;;
52940;SDS011;62001;53.366;6.636;2023-03-16T12:10:21;10.20;;;6.23;;
52940;SDS011;62001;53.366;6.636;2023-03-16T12:15:28;12.37;;;6.43;;
52940;SDS011;62001;53.366;6.636;2023-03-16T12:18:01;9.37;;;6.03;;
52940;SDS011;62001;53.366;6.636;2023-03-16T12:23:29;10.97;;;6.67;;
52940;SDS011;62001;53.366;6.636;2023-03-16T12:25:59;10.70;;;6.00;;
52940;SDS011;62001;53.366;6.636;2023-03-16T12:28:26;13.07;;;6.60;;
52940;SDS011;62001;53.366;6.636;2023-03-16T12:36:49;9.97;;;6.37;;
52940;SDS011;62001;53.366;6.636;2023-03-16T12:39:29;10.70;;;6.10;;
52940;SDS011;62001;53.366;6.636;2023-03-16T12:42:31;8.10;;;5.73;;
52940;SDS011;62001;53.366;6.636;2023-03-16T12:45:00;10.93;;;5.93;;
52940;SDS011;62001;53.366;6.636;2023-03-16T12:50:24;9.13;;;5.97;;
52940;SDS011;62001;53.366;6.636;2023-03-16T12:52:52;11.07;;;6.00;;
52940;SDS011;62001;53.366;6.636;2023-03-16T12:55:25;8.87;;;6.23;;
52940;SDS011;62001;53.366;6.636;2023-03-16T12:58:05;8.23;;;5.83;;
52940;SDS011;62001;53.366;6.636;2023-03-16T13:00:36;9.70;;;6.17;;
52940;SDS011;62001;53.366;6.636;2023-03-16T13:03:13;9.93;;;5.87;;
52940;SDS011;62001;53.366;6.636;2023-03-16T13:05:44;8.47;;;6.03;;
52940;SDS011;62001;53.366;6.636;2023-03-16T13:08:16;8.57;;;6.37;;
52940;SDS011;62001;53.366;6.636;2023-03-16T13:11:03;9.13;;;5.90;;
52940;SDS011;62001;53.366;6.636;2023-03-16T13:16:29;12.82;;;5.55;;
52940;SDS011;62001;53.366;6.636;2023-03-16T13:18:57;7.90;;;6.07;;
52940;SDS011;62001;53.366;6.636;2023-03-16T13:21:34;9.63;;;5.53;;
52940;SDS011;62001;53.366;6.636;2023-03-16T13:26:52;9.00;;;6.00;;
52940;SDS011;62001;53.366;6.636;2023-03-16T13:29:30;11.23;;;6.03;;
52940;SDS011;62001;53.366;6.636;2023-03-16T13:31:57;8.30;;;5.70;;
52940;SDS011;62001;53.366;6.636;2023-03-16T13:34:35;11.23;;;5.80;;
52940;SDS011;62001;53.366;6.636;2023-03-16T13:37:12;8.13;;;5.77;;
52940;SDS011;62001;53.366;6.636;2023-03-16T13:39:39;11.05;;;6.07;;
52940;SDS011;62001;53.366;6.636;2023-03-16T13:44:41;9.33;;;5.60;;
52940;SDS011;62001;53.366;6.636;2023-03-16T13:47:15;8.13;;;5.83;;
52940;SDS011;62001;53.366;6.636;2023-03-16T13:49:43;9.03;;;5.33;;
52940;SDS011;62001;53.366;6.636;2023-03-16T13:52:26;8.53;;;6.10;;
52940;SDS011;62001;53.366;6.636;2023-03-16T13:54:55;9.67;;;5.87;;
52940;SDS011;62001;53.366;6.636;2023-03-16T13:57:23;13.63;;;5.67;;
52940;SDS011;62001;53.366;6.636;2023-03-16T13:59:52;8.77;;;5.40;;
52940;SDS011;62001;53.366;6.636;2023-03-16T14:02:27;10.15;;;5.60;;
52940;SDS011;62001;53.366;6.636;2023-03-16T14:04:53;7.30;;;5.33;;
52940;SDS011;62001;53.366;6.636;2023-03-16T14:07:20;10.00;;;5.73;;
52940;SDS011;62001;53.366;6.636;2023-03-16T14:09:47;11.37;;;5.33;;
52940;SDS011;62001;53.366;6.636;2023-03-16T14:12:15;9.77;;;5.60;;
52940;SDS011;62001;53.366;6.636;2023-03-16T14:14:46;9.37;;;5.10;;
52940;SDS011;62001;53.366;6.636;2023-03-16T14:17:19;9.23;;;5.53;;
52940;SDS011;62001;53.366;6.636;2023-03-16T14:19:47;7.93;;;5.43;;
52940;SDS011;62001;53.366;6.636;2023-03-16T14:22:29;7.27;;;5.23;;
52940;SDS011;62001;53.366;6.636;2023-03-16T14:25:01;8.82;;;5.32;;
52940;SDS011;62001;53.366;6.636;2023-03-16T14:32:59;6.97;;;5.40;;
52940;SDS011;62001;53.366;6.636;2023-03-16T14:35:40;8.27;;;5.43;;
52940;SDS011;62001;53.366;6.636;2023-03-16T14:40:52;6.60;;;5.13;;
52940;SDS011;62001;53.366;6.636;2023-03-16T14:43:20;7.90;;;4.70;;
52940;SDS011;62001;53.366;6.636;2023-03-16T14:45:58;7.53;;;5.20;;
52940;SDS011;62001;53.366;6.636;2023-03-16T14:48:24;6.77;;;4.73;;
52940;SDS011;62001;53.366;6.636;2023-03-16T14:50:55;6.90;;;5.00;;
52940;SDS011;62001;53.366;6.636;2023-03-16T14:53:23;8.20;;;5.30;;
52940;SDS011;62001;53.366;6.636;2023-03-16T14:55:53;11.32;;;5.20;;
52940;SDS011;62001;53.366;6.636;2023-03-16T14:58:19;9.32;;;5.32;;
52940;SDS011;62001;53.366;6.636;2023-03-16T15:00:46;7.03;;;4.93;;
52940;SDS011;62001;53.366;6.636;2023-03-16T15:03:14;8.05;;;4.90;;
52940;SDS011;62001;53.366;6.636;2023-03-16T15:05:42;7.53;;;4.60;;
52940;SDS011;62001;53.366;6.636;2023-03-16T15:08:15;7.15;;;4.68;;
52940;SDS011;62001;53.366;6.636;2023-03-16T15:10:47;6.85;;;4.53;;
52940;SDS011;62001;53.366;6.636;2023-03-16T15:13:16;9.82;;;4.82;;
52940;SDS011;62001;53.366;6.636;2023-03-16T15:16:01;6.45;;;4.50;;
52940;SDS011;62001;53.366;6.636;2023-03-16T15:18:28;7.10;;;4.22;;
52940;SDS011;62001;53.366;6.636;2023-03-16T15:20:55;7.82;;;4.43;;
52940;SDS011;62001;53.366;6.636;2023-03-16T15:23:21;8.90;;;4.60;;
52940;SDS011;62001;53.366;6.636;2023-03-16T15:25:47;9.20;;;4.40;;
52940;SDS011;62001;53.366;6.636;2023-03-16T15:28:16;7.38;;;4.95;;
52940;SDS011;62001;53.366;6.636;2023-03-16T15:30:44;8.45;;;4.68;;
52940;SDS011;62001;53.366;6.636;2023-03-16T15:33:29;7.25;;;4.25;;
52940;SDS011;62001;53.366;6.636;2023-03-16T15:35:56;7.93;;;4.55;;
52940;SDS011;62001;53.366;6.636;2023-03-16T15:40:52;6.07;;;4.28;;
52940;SDS011;62001;53.366;6.636;2023-03-16T15:43:19;8.60;;;4.60;;
52940;SDS011;62001;53.366;6.636;2023-03-16T15:45:49;6.40;;;3.97;;
52940;SDS011;62001;53.366;6.636;2023-03-16T15:48:19;6.10;;;3.90;;
52940;SDS011;62001;53.366;6.636;2023-03-16T15:50:55;8.37;;;4.67;;
52940;SDS011;62001;53.366;6.636;2023-03-16T15:53:39;7.43;;;4.50;;
52940;SDS011;62001;53.366;6.636;2023-03-16T15:56:11;8.25;;;4.25;;
52940;SDS011;62001;53.366;6.636;2023-03-16T15:58:42;6.53;;;3.90;;
52940;SDS011;62001;53.366;6.636;2023-03-16T16:01:20;7.93;;;3.97;;
52940;SDS011;62001;53.366;6.636;2023-03-16T16:03:51;5.10;;;3.70;;
52940;SDS011;62001;53.366;6.636;2023-03-16T16:06:18;5.65;;;3.92;;
52940;SDS011;62001;53.366;6.636;2023-03-16T16:08:44;8.63;;;4.13;;
52940;SDS011;62001;53.366;6.636;2023-03-16T16:11:24;7.55;;;4.07;;
52940;SDS011;62001;53.366;6.636;2023-03-16T16:13:55;5.10;;;3.60;;
52940;SDS011;62001;53.366;6.636;2023-03-16T16:16:22;13.02;;;4.10;;